Flight Track Log - Related Links

Times and Time Zones

All times are in EDT time to prevent confusion due to time zone crossing. See the SWA407 flight status page for this flight to view local times or setup timezone preferences in your user account.

Time Position Orientation Groundspeed Altitude Reporting Facility
EDT Latitude Longitude Course Direction KTS MPH feet Rate Location/Type
Thu 15:26:13 28.4167 -81.3000 180° South 152 175 600  Level Orlando TRACON
Thu 15:27:13 28.3667 -81.3000 180° South 230 265 3,100 2,952 Climbing Orlando TRACON
Thu 15:28:19 28.3500 -81.3833 257° West 272 313 6,800 3,571 Climbing Orlando TRACON
Thu 15:29:19 28.4000 -81.4333 319° Northwest 307 353 10,600 3,337 Climbing Orlando TRACON
Thu 15:31:44 28.6328 -81.5019 345° North 372 428 18,200 3,278 Climbing Jacksonville Center
Thu 15:32:44 28.7394 -81.5264 349° North 372 428 21,800 2,400 Climbing Jacksonville Center
Thu 15:33:44 28.8483 -81.5556 347° North 383 441 23,000 2,050 Climbing Jacksonville Center
Thu 15:34:44 28.9572 -81.5828 348° North 393 452 25,900 2,850 Climbing Jacksonville Center
Thu 15:35:44 29.0681 -81.6097 348° North 393 452 28,700 3,150 Climbing Jacksonville Center
Thu 15:36:44 29.1811 -81.6344 349° North 393 452 32,200 3,150 Climbing Jacksonville Center
Thu 15:37:44 29.2814 -81.6642 346° North 385 443 35,000 1,400 Climbing Jacksonville Center
Thu 15:38:44 29.3881 -81.6889 349° North 380 437 35,000  Level Jacksonville Center
Thu 15:39:44 29.4969 -81.7164 348° North 385 443 35,000  Level Jacksonville Center
Thu 15:40:44 29.6036 -81.7411 349° North 390 449 35,000  Level Jacksonville Center
Thu 15:41:44 29.7106 -81.7711 346° North 390 449 35,000  Level Jacksonville Center
Thu 15:42:44 29.8192 -81.7939 350° North 390 449 35,000  Level Jacksonville Center
Thu 15:43:44 29.9258 -81.8214 347° North 390 449 35,000  Level Jacksonville Center
Thu 15:44:44 30.0325 -81.8442 350° North 390 449 35,000  Level Jacksonville Center
Thu 15:45:44 30.1392 -81.8694 348° North 390 449 35,000  Level Jacksonville Center
Thu 15:46:44 30.2500 -81.8825 354° North 390 449 35,000  Level Jacksonville Center
Thu 15:48:44 30.4772 -81.8489 North 401 461 35,000  Level Jacksonville Center
Thu 15:49:44 30.5919 -81.8381 North 411 473 35,000  Level Jacksonville Center
Thu 15:50:44 30.7025 -81.8222 North 406 467 35,000  Level Jacksonville Center
Thu 15:51:44 30.8172 -81.8089 North 406 467 35,000  Level Jacksonville Center
Thu 15:52:44 30.9200 -81.8464 343° North 394 453 35,000  Level Jacksonville Center
Thu 15:53:44 31.0100 -81.9011 332° Northwest 402 463 35,000  Level Jacksonville Center
Thu 15:54:44 31.1108 -81.9608 333° Northwest 402 463 35,000  Level Jacksonville Center
Thu 15:55:44 31.2136 -82.0206 334° Northwest 402 463 35,000  Level Jacksonville Center
Thu 15:56:44 31.3119 -82.0803 333° Northwest 402 463 35,000  Level Jacksonville Center
Thu 15:57:44 31.4106 -82.1428 332° Northwest 402 463 35,000  Level Jacksonville Center
Thu 15:58:44 31.5111 -82.2028 333° Northwest 402 463 35,000  Level Jacksonville Center
Thu 15:59:44 31.6075 -82.2558 335° Northwest 395 455 35,000  Level Jacksonville Center
Thu 16:01:41 31.8064 -82.3722 334° Northwest 372 428 35,000  Level Atlanta Center
Thu 16:02:41 31.9031 -82.4317 332° Northwest 382 440 35,000  Level Atlanta Center
Thu 16:03:41 31.9997 -82.4911 332° Northwest 382 440 35,000  Level Atlanta Center
Thu 16:04:41 32.0967 -82.5483 333° Northwest 387 445 35,000 -50 Level Atlanta Center
Thu 16:05:41 32.1933 -82.6081 332° Northwest 392 451 34,900 -550 Descending Atlanta Center
Thu 16:06:41 32.2919 -82.6653 334° Northwest 392 451 33,900 -950 Descending Atlanta Center
Thu 16:07:41 32.3928 -82.7278 332° Northwest 393 452 33,000 -950 Descending Atlanta Center
Thu 16:08:41 32.4936 -82.7903 332° Northwest 393 452 32,000 -750 Descending Atlanta Center
Thu 16:09:41 32.5736 -82.8508 327° Northwest 393 452 31,500 -900 Descending Atlanta Center
Thu 16:10:41 32.6542 -82.9656 310° West 398 458 30,200 -1,150 Descending Atlanta Center
Thu 16:11:41 32.7239 -83.0686 309° West 403 464 29,200 -900 Descending Atlanta Center
Thu 16:12:41 32.7786 -83.1519 308° West 403 464 28,400 -1,050 Descending Atlanta Center
Thu 16:13:41 32.8608 -83.2772 308° West 398 458 27,100 -1,700 Descending Atlanta Center
Thu 16:14:41 32.9283 -83.3731 310° West 398 458 25,000 -1,950 Descending Atlanta Center
Thu 16:15:41 32.9956 -83.4792 307° West 393 452 23,200 -2,433 Descending Atlanta Center
Thu 16:17:41 33.1236 -83.6742 308° West 388 447 17,700 -2,767 Descending Atlanta Center
Thu 16:18:41 33.1908 -83.7683 310° West 382 440 14,900 -1,850 Descending Atlanta Center
Thu 16:19:41 33.2597 -83.8747 308° West 382 440 14,000 -650 Descending Atlanta Center
Thu 16:20:41 33.3142 -83.9592 308° West 352 405 13,600 -800 Descending Atlanta Center
Thu 16:21:41 33.3683 -84.0389 309° West 317 365 12,400 -800 Descending Atlanta Center
Thu 16:22:41 33.4186 -84.1158 308° West 303 349 12,000 -200 Descending Atlanta Center
Thu 16:23:41 33.4622 -84.1833 308° West 274 315 12,000  Level Atlanta Center
Thu 16:24:41 33.5061 -84.2506 308° West 262 302 12,000 -350 Level Atlanta Center
Thu 16:25:41 33.5414 -84.3231 300° West 256 295 11,300 -950 Descending Atlanta Center
Thu 16:26:41 33.5433 -84.4028 272° West 241 277 10,100 -1,200 Descending Atlanta Center
Thu 16:27:41 33.5431 -84.4700 270° West 236 272 8,900 -1,721 Descending Atlanta Center
Thu 16:28:50 33.5500 -84.5667 275° West 233 268 6,400 -1,860 Descending Atlanta TRACON
Thu 16:29:50 33.5667 -84.6333 287° West 247 284 4,900 -1,400 Descending Atlanta TRACON
Thu 16:30:50 33.6167 -84.6000 29° Northeast 204 235 3,600 -1,200 Descending Atlanta TRACON
Thu 16:31:50 33.6167 -84.5333 90° East 181 208 2,500 -950 Descending Atlanta TRACON
Thu 16:32:50 33.6167 -84.4833 90° East 137 158 1,700 -800 Descending Atlanta TRACON
Thu 16:34:00 33.6367 -84.4279 64° Northeast  Level Estimated
Thu 16:41:00 33.6367 -84.4279 64° Northeast  Level Estimated
Thu 16:42:00 33.6367 -84.4279 64° Northeast  Level Estimated

Login

Don't have an account? Register now (free) for customized features, flight alerts, and more!